Time;durP1;ratioP1;P1;durP2;ratioP2;P2;SDS_P1;SDS_P2;PMS_P1;PMS_P2;Temp;Humidity;BMP_temperature;BMP_pressure;BME280_temperature;BME280_humidity;BME280_pressure;Samples;Min_cycle;Max_cycle;Signal;HPM_P1;HPM_P2
2022/02/24 00:00:20;;;;;;;1.70;0.40;;;;;;;;;;5015853;28;20201;-69
2022/02/24 00:02:48;;;;;;;7.90;1.40;;;;;;;;;;5016929;28;20203;-69
2022/02/24 00:05:16;;;;;;;0.97;0.83;;;;;;;;;;5020215;28;20227;-68
2022/02/24 00:07:44;;;;;;;0.90;0.67;;;;;;;;;;5021876;28;20204;-68
2022/02/24 00:10:12;;;;;;;1.50;1.07;;;;;;;;;;5021548;28;20200;-68
2022/02/24 00:12:41;;;;;;;4.80;4.33;;;;;;;;;;5019138;28;20188;-69
2022/02/24 00:15:09;;;;;;;0.47;0.47;;;;;;;;;;5019364;28;20200;-70
2022/02/24 00:17:38;;;;;;;0.00;0.00;;;;;;;;;;5021329;28;20203;-71
2022/02/24 00:20:06;;;;;;;2.23;0.93;;;;;;;;;;5021385;28;20200;-68
2022/02/24 00:22:33;;;;;;;3.50;1.70;;;;;;;;;;5019660;28;20590;-66
2022/02/24 00:25:01;;;;;;;2.77;2.30;;;;;;;;;;5020946;28;20239;-69
2022/02/24 00:27:28;;;;;;;5.23;0.73;;;;;;;;;;5020666;28;20232;-69
2022/02/24 00:29:55;;;;;;;0.10;0.10;;;;;;;;;;5020077;28;20192;-70
2022/02/24 00:32:23;;;;;;;0.37;0.37;;;;;;;;;;5020333;28;20192;-69
2022/02/24 00:34:51;;;;;;;1.57;0.83;;;;;;;;;;5021054;28;20211;-69
2022/02/24 00:37:19;;;;;;;8.10;1.50;;;;;;;;;;5020910;28;20664;-68
2022/02/24 00:39:46;;;;;;;3.40;1.37;;;;;;;;;;5019594;28;20724;-68
2022/02/24 00:42:13;;;;;;;1.20;0.60;;;;;;;;;;5019134;28;20204;-69
2022/02/24 00:44:41;;;;;;;0.87;0.73;;;;;;;;;;5019791;28;20685;-68
2022/02/24 00:47:08;;;;;;;4.07;1.10;;;;;;;;;;5022103;28;20201;-68
2022/02/24 00:49:36;;;;;;;0.50;0.50;;;;;;;;;;5025291;28;20228;-68
2022/02/24 00:52:05;;;;;;;0.93;0.57;;;;;;;;;;5022821;28;20196;-68
2022/02/24 00:54:32;;;;;;;0.93;0.93;;;;;;;;;;5020783;28;20204;-70
2022/02/24 00:57:00;;;;;;;9.80;1.07;;;;;;;;;;5021393;28;20201;-68
2022/02/24 00:59:27;;;;;;;0.70;0.70;;;;;;;;;;5020846;28;20654;-68
2022/02/24 01:01:55;;;;;;;0.70;0.50;;;;;;;;;;5019587;28;20235;-69
2022/02/24 01:04:22;;;;;;;0.20;0.20;;;;;;;;;;5018099;28;20216;-68
2022/02/24 01:06:49;;;;;;;1.43;1.03;;;;;;;;;;5018448;28;20243;-69
2022/02/24 01:09:18;;;;;;;0.10;0.10;;;;;;;;;;5016752;28;20205;-68
2022/02/24 01:11:46;;;;;;;0.00;0.00;;;;;;;;;;5016666;28;20200;-68
2022/02/24 01:14:13;;;;;;;0.30;0.30;;;;;;;;;;5018542;28;20211;-68
2022/02/24 01:16:40;;;;;;;3.30;0.83;;;;;;;;;;5016350;28;20204;-68
2022/02/24 01:19:08;;;;;;;0.63;0.53;;;;;;;;;;5017341;28;20205;-72
2022/02/24 01:21:35;;;;;;;0.40;0.40;;;;;;;;;;5017060;28;20208;-68
2022/02/24 01:24:03;;;;;;;1.40;1.10;;;;;;;;;;5020200;28;20208;-70
2022/02/24 01:26:32;;;;;;;0.87;0.87;;;;;;;;;;5020587;28;20204;-67
2022/02/24 01:28:59;;;;;;;0.00;0.00;;;;;;;;;;5019496;28;20220;-68
2022/02/24 01:31:26;;;;;;;1.13;0.93;;;;;;;;;;5017687;28;20616;-68
2022/02/24 01:33:54;;;;;;;0.73;0.43;;;;;;;;;;5018953;28;20255;-69
2022/02/24 01:36:21;;;;;;;0.33;0.33;;;;;;;;;;5019999;28;20576;-69
2022/02/24 01:38:48;;;;;;;3.53;0.93;;;;;;;;;;5019771;28;20236;-69
2022/02/24 01:41:16;;;;;;;4.60;1.33;;;;;;;;;;5017516;28;20649;-71
2022/02/24 01:43:46;;;;;;;0.77;0.63;;;;;;;;;;5020106;28;20201;-68
2022/02/24 01:46:14;;;;;;;2.80;1.77;;;;;;;;;;5019012;28;20220;-68
2022/02/24 01:48:41;;;;;;;1.53;0.23;;;;;;;;;;5019346;28;20560;-68
2022/02/24 01:51:09;;;;;;;1.60;0.20;;;;;;;;;;5018579;28;20205;-69
2022/02/24 01:53:37;;;;;;;0.23;0.23;;;;;;;;;;5017062;28;20232;-68
2022/02/24 01:56:05;;;;;;;0.17;0.17;;;;;;;;;;5022767;28;20518;-69
2022/02/24 01:58:32;;;;;;;0.67;0.67;;;;;;;;;;5024524;28;20196;-67
2022/02/24 02:01:01;;;;;;;0.87;0.87;;;;;;;;;;5022017;28;20204;-69
2022/02/24 02:03:29;;;;;;;0.10;0.10;;;;;;;;;;5024732;28;20192;-68
2022/02/24 02:05:57;;;;;;;0.03;0.03;;;;;;;;;;5034882;28;20231;-68
2022/02/24 02:08:25;;;;;;;0.00;0.00;;;;;;;;;;5026431;28;20200;-67
2022/02/24 02:10:52;;;;;;;0.97;0.97;;;;;;;;;;5025473;28;20209;-68
2022/02/24 02:13:20;;;;;;;3.90;0.37;;;;;;;;;;5034129;28;20204;-68
2022/02/24 02:15:47;;;;;;;2.97;0.80;;;;;;;;;;5034347;28;20649;-71
2022/02/24 02:18:17;;;;;;;1.50;0.63;;;;;;;;;;5043038;28;20195;-70
2022/02/24 02:20:46;;;;;;;1.20;0.97;;;;;;;;;;5039816;28;20573;-72
2022/02/24 02:23:14;;;;;;;0.70;0.40;;;;;;;;;;5021937;28;20212;-68
2022/02/24 02:25:41;;;;;;;0.60;0.60;;;;;;;;;;5015351;28;20224;-68
2022/02/24 02:28:08;;;;;;;4.27;1.40;;;;;;;;;;5014814;28;20209;-68
2022/02/24 02:30:36;;;;;;;2.67;2.47;;;;;;;;;;5020145;28;20197;-68
2022/02/24 02:33:03;;;;;;;2.60;0.37;;;;;;;;;;5029785;28;20335;-68
2022/02/24 02:35:30;;;;;;;1.43;0.93;;;;;;;;;;5032247;28;20573;-68
2022/02/24 02:37:59;;;;;;;0.20;0.20;;;;;;;;;;5034041;28;20224;-68
2022/02/24 02:40:27;;;;;;;1.20;0.50;;;;;;;;;;5034415;28;20196;-68
2022/02/24 02:42:54;;;;;;;0.20;0.20;;;;;;;;;;5033110;28;20207;-68
2022/02/24 02:45:22;;;;;;;1.27;0.70;;;;;;;;;;5019245;28;20228;-67
2022/02/24 02:47:49;;;;;;;3.60;1.30;;;;;;;;;;5014403;28;20678;-67
2022/02/24 02:50:16;;;;;;;4.43;3.30;;;;;;;;;;5014484;28;20204;-67
2022/02/24 02:52:44;;;;;;;0.73;0.30;;;;;;;;;;5014259;28;20204;-67
2022/02/24 02:55:14;;;;;;;2.87;1.03;;;;;;;;;;5027824;28;20212;-68
2022/02/24 02:57:41;;;;;;;2.10;0.30;;;;;;;;;;5019907;28;20196;-68
2022/02/24 03:00:10;;;;;;;1.83;0.60;;;;;;;;;;5028909;28;20608;-68
2022/02/24 03:02:39;;;;;;;2.27;0.37;;;;;;;;;;5023827;28;20196;-68
2022/02/24 03:05:07;;;;;;;0.90;0.37;;;;;;;;;;5020740;28;20231;-68
2022/02/24 03:07:34;;;;;;;0.10;0.03;;;;;;;;;;5030335;28;20276;-69
2022/02/24 03:10:02;;;;;;;0.30;0.30;;;;;;;;;;5019349;28;20193;-67
2022/02/24 03:12:35;;;;;;;8.33;0.93;;;;;;;;;;5019969;28;20605;-69
2022/02/24 03:15:02;;;;;;;2.23;0.63;;;;;;;;;;5028001;28;20210;-68
2022/02/24 03:17:29;;;;;;;7.43;1.07;;;;;;;;;;5030192;28;20197;-68
2022/02/24 03:19:57;;;;;;;9.97;1.50;;;;;;;;;;5020214;28;20287;-70
2022/02/24 03:22:24;;;;;;;6.30;1.47;;;;;;;;;;5019145;28;20294;-68
2022/02/24 03:24:51;;;;;;;5.27;1.77;;;;;;;;;;5026391;28;20697;-68
2022/02/24 03:27:19;;;;;;;0.43;0.33;;;;;;;;;;5016488;28;20211;-68
2022/02/24 03:29:48;;;;;;;5.97;1.77;;;;;;;;;;5021259;28;20204;-68
2022/02/24 03:32:15;;;;;;;1.73;1.03;;;;;;;;;;5027402;28;20200;-68
2022/02/24 03:34:44;;;;;;;0.30;0.20;;;;;;;;;;5029699;28;20552;-68
2022/02/24 03:37:11;;;;;;;2.47;2.27;;;;;;;;;;5026988;28;20197;-68
2022/02/24 03:39:38;;;;;;;0.37;0.33;;;;;;;;;;5013987;28;20229;-68
2022/02/24 03:42:06;;;;;;;0.13;0.13;;;;;;;;;;5030787;28;20203;-68
2022/02/24 03:44:34;;;;;;;0.67;0.60;;;;;;;;;;5033112;28;20223;-67
2022/02/24 03:47:02;;;;;;;1.57;1.13;;;;;;;;;;5032521;28;20192;-67
2022/02/24 03:49:30;;;;;;;0.60;0.57;;;;;;;;;;5026286;28;20201;-68
2022/02/24 03:51:57;;;;;;;0.63;0.63;;;;;;;;;;5023340;28;20207;-68
2022/02/24 03:54:24;;;;;;;0.67;0.20;;;;;;;;;;5031789;28;20211;-67
2022/02/24 03:56:51;;;;;;;0.40;0.40;;;;;;;;;;5033128;28;20196;-68
2022/02/24 03:59:19;;;;;;;1.63;1.23;;;;;;;;;;5033081;28;20246;-67
2022/02/24 04:01:46;;;;;;;1.03;0.47;;;;;;;;;;5031764;28;20207;-68
2022/02/24 04:04:15;;;;;;;23.23;1.87;;;;;;;;;;5032967;28;20202;-68
2022/02/24 04:06:42;;;;;;;0.57;0.53;;;;;;;;;;5030287;28;20228;-68
2022/02/24 04:09:10;;;;;;;0.20;0.20;;;;;;;;;;5031242;28;20677;-67
2022/02/24 04:11:37;;;;;;;7.40;0.77;;;;;;;;;;5029399;28;20197;-67
2022/02/24 04:14:06;;;;;;;0.67;0.57;;;;;;;;;;5029594;28;20412;-67
2022/02/24 04:16:33;;;;;;;3.40;0.70;;;;;;;;;;5032149;28;20250;-68
2022/02/24 04:19:00;;;;;;;0.10;0.10;;;;;;;;;;5028199;28;20212;-68
2022/02/24 04:21:29;;;;;;;0.43;0.43;;;;;;;;;;5031050;28;20197;-68
2022/02/24 04:23:56;;;;;;;0.30;0.30;;;;;;;;;;5022225;28;20274;-67
2022/02/24 04:26:24;;;;;;;0.00;0.00;;;;;;;;;;5025489;28;20232;-68
2022/02/24 04:28:51;;;;;;;7.60;0.43;;;;;;;;;;5031968;28;20201;-68
2022/02/24 04:31:18;;;;;;;0.10;0.10;;;;;;;;;;5019915;28;20341;-69
2022/02/24 04:33:46;;;;;;;0.67;0.53;;;;;;;;;;5022936;28;20211;-67
2022/02/24 04:36:13;;;;;;;1.20;0.97;;;;;;;;;;5032164;28;20250;-68
2022/02/24 04:38:42;;;;;;;0.20;0.10;;;;;;;;;;5024971;28;20717;-68
2022/02/24 04:41:09;;;;;;;2.23;1.07;;;;;;;;;;5019903;28;20216;-68
2022/02/24 04:43:36;;;;;;;0.57;0.30;;;;;;;;;;5025523;28;20209;-68
2022/02/24 04:46:04;;;;;;;0.00;0.00;;;;;;;;;;5031289;28;20711;-68
2022/02/24 04:48:31;;;;;;;0.50;0.40;;;;;;;;;;5029925;28;20208;-68
2022/02/24 04:50:58;;;;;;;3.20;1.50;;;;;;;;;;5031864;28;20571;-67
2022/02/24 04:53:26;;;;;;;0.93;0.33;;;;;;;;;;5028396;28;20223;-68
2022/02/24 04:55:55;;;;;;;5.70;0.80;;;;;;;;;;5031739;28;20204;-67
2022/02/24 04:58:22;;;;;;;0.10;0.10;;;;;;;;;;5029682;28;20586;-67
2022/02/24 05:00:50;;;;;;;0.83;0.57;;;;;;;;;;5022092;28;20215;-67
2022/02/24 05:03:17;;;;;;;0.00;0.00;;;;;;;;;;5027405;28;20592;-68
2022/02/24 05:05:44;;;;;;;13.43;1.77;;;;;;;;;;5031652;28;20256;-69
2022/02/24 05:08:12;;;;;;;0.23;0.20;;;;;;;;;;5031584;28;20579;-68
2022/02/24 05:10:39;;;;;;;0.20;0.20;;;;;;;;;;5028616;28;20204;-69
2022/02/24 05:13:08;;;;;;;2.17;0.77;;;;;;;;;;5011851;28;20209;-67
2022/02/24 05:15:35;;;;;;;0.10;0.10;;;;;;;;;;5017210;28;20208;-69
2022/02/24 05:18:03;;;;;;;1.80;0.47;;;;;;;;;;5017004;28;20204;-69
2022/02/24 05:20:30;;;;;;;0.73;0.30;;;;;;;;;;5018998;28;20223;-68
2022/02/24 05:22:57;;;;;;;3.03;1.20;;;;;;;;;;5016085;28;20200;-69
2022/02/24 05:25:25;;;;;;;3.47;0.77;;;;;;;;;;5016722;28;20220;-70
2022/02/24 05:27:52;;;;;;;0.10;0.10;;;;;;;;;;5016551;28;20545;-69
2022/02/24 05:30:21;;;;;;;4.70;0.83;;;;;;;;;;5015824;28;20293;-68
2022/02/24 05:32:48;;;;;;;3.50;1.00;;;;;;;;;;5016229;28;20196;-68
2022/02/24 05:35:16;;;;;;;2.40;0.90;;;;;;;;;;5010831;28;20204;-67
2022/02/24 05:37:43;;;;;;;0.50;0.50;;;;;;;;;;5014999;28;20289;-66
2022/02/24 05:40:13;;;;;;;1.70;0.83;;;;;;;;;;5014111;28;20203;-69
2022/02/24 05:42:41;;;;;;;16.00;1.17;;;;;;;;;;5027879;28;20227;-66
2022/02/24 05:45:09;;;;;;;0.23;0.23;;;;;;;;;;5031266;28;20192;-67
2022/02/24 05:47:37;;;;;;;0.20;0.20;;;;;;;;;;5028063;28;20211;-67
2022/02/24 05:50:07;;;;;;;8.73;0.90;;;;;;;;;;5016179;28;20327;-69
2022/02/24 05:52:35;;;;;;;1.17;0.30;;;;;;;;;;5018167;28;20738;-69
2022/02/24 05:55:02;;;;;;;1.73;0.90;;;;;;;;;;5016460;28;20798;-67
2022/02/24 05:57:30;;;;;;;1.70;1.50;;;;;;;;;;5016654;28;20535;-67
2022/02/24 05:59:57;;;;;;;0.00;0.00;;;;;;;;;;5016721;28;20239;-67
2022/02/24 06:02:24;;;;;;;1.70;0.60;;;;;;;;;;5028355;28;20201;-68
2022/02/24 06:04:54;;;;;;;0.17;0.17;;;;;;;;;;5024746;28;20200;-67
2022/02/24 06:07:22;;;;;;;5.93;0.77;;;;;;;;;;5021791;28;20254;-67
2022/02/24 06:09:49;;;;;;;0.30;0.30;;;;;;;;;;5029545;28;20196;-67
2022/02/24 06:12:16;;;;;;;0.13;0.13;;;;;;;;;;5029872;28;20200;-67
2022/02/24 06:14:44;;;;;;;0.57;0.40;;;;;;;;;;5028798;28;20204;-67
2022/02/24 06:17:11;;;;;;;5.13;0.47;;;;;;;;;;5030186;28;20219;-67
2022/02/24 06:19:39;;;;;;;1.33;0.20;;;;;;;;;;5031009;28;20192;-66
2022/02/24 06:22:08;;;;;;;0.37;0.37;;;;;;;;;;5026923;28;20555;-67
2022/02/24 06:24:35;;;;;;;1.30;0.57;;;;;;;;;;5024074;28;20211;-68
2022/02/24 06:27:03;;;;;;;2.10;0.77;;;;;;;;;;5010903;28;20233;-67
2022/02/24 06:29:30;;;;;;;0.20;0.20;;;;;;;;;;5012840;28;20204;-68
2022/02/24 06:31:58;;;;;;;0.30;0.30;;;;;;;;;;5030718;28;20223;-67
2022/02/24 06:34:25;;;;;;;0.40;0.30;;;;;;;;;;5029293;28;20211;-68
2022/02/24 06:36:52;;;;;;;3.40;0.93;;;;;;;;;;5030264;28;20197;-67
2022/02/24 06:39:22;;;;;;;0.10;0.00;;;;;;;;;;5017963;28;20580;-68
2022/02/24 06:41:49;;;;;;;0.10;0.10;;;;;;;;;;5015899;28;20221;-67
2022/02/24 06:44:16;;;;;;;0.20;0.20;;;;;;;;;;5011243;28;20213;-67
2022/02/24 06:46:44;;;;;;;0.00;0.00;;;;;;;;;;5011806;28;20228;-67
2022/02/24 06:49:12;;;;;;;0.10;0.10;;;;;;;;;;5013609;28;20200;-68
2022/02/24 06:51:40;;;;;;;0.20;0.20;;;;;;;;;;5021922;28;20201;-69
2022/02/24 06:54:07;;;;;;;0.40;0.40;;;;;;;;;;5019470;28;20200;-68
2022/02/24 06:56:36;;;;;;;0.13;0.13;;;;;;;;;;5018206;28;20201;-69
2022/02/24 06:59:03;;;;;;;1.03;0.37;;;;;;;;;;5019296;28;20196;-68
2022/02/24 07:01:31;;;;;;;0.00;0.00;;;;;;;;;;5024231;28;20196;-68
2022/02/24 07:03:58;;;;;;;0.33;0.30;;;;;;;;;;5017742;28;20658;-67
2022/02/24 07:06:26;;;;;;;1.00;0.43;;;;;;;;;;5019200;28;20231;-68
2022/02/24 07:08:53;;;;;;;2.40;0.77;;;;;;;;;;5022808;28;20200;-67
2022/02/24 07:11:21;;;;;;;0.00;0.00;;;;;;;;;;5020721;28;20201;-71
2022/02/24 07:13:50;;;;;;;0.10;0.10;;;;;;;;;;5017480;28;20700;-68
2022/02/24 07:16:17;;;;;;;0.10;0.10;;;;;;;;;;5020523;28;20278;-67
2022/02/24 07:18:44;;;;;;;0.80;0.80;;;;;;;;;;5044369;28;20195;-67
2022/02/24 07:21:11;;;;;;;0.50;0.30;;;;;;;;;;5052479;28;20661;-66
2022/02/24 07:23:39;;;;;;;0.07;0.07;;;;;;;;;;5033920;28;20201;-67
2022/02/24 07:26:07;;;;;;;1.27;0.30;;;;;;;;;;5032111;28;20220;-67
2022/02/24 07:28:36;;;;;;;2.53;1.60;;;;;;;;;;5033554;28;20262;-66
2022/02/24 07:31:05;;;;;;;0.20;0.10;;;;;;;;;;5022293;28;20275;-68
2022/02/24 07:33:32;;;;;;;1.40;0.50;;;;;;;;;;5019680;28;20737;-67
2022/02/24 07:35:59;;;;;;;4.50;0.73;;;;;;;;;;5016127;28;20687;-67
2022/02/24 07:38:27;;;;;;;2.40;1.10;;;;;;;;;;5014464;28;20254;-67
2022/02/24 07:40:55;;;;;;;11.43;0.70;;;;;;;;;;5021986;28;20250;-66
2022/02/24 07:43:22;;;;;;;1.57;0.87;;;;;;;;;;5016956;28;20694;-69
2022/02/24 07:45:49;;;;;;;0.60;0.43;;;;;;;;;;5014832;28;20210;-68
2022/02/24 07:48:18;;;;;;;2.60;0.33;;;;;;;;;;5018799;28;20588;-68
2022/02/24 07:50:45;;;;;;;0.90;0.50;;;;;;;;;;5016363;28;20665;-69
2022/02/24 07:53:13;;;;;;;1.43;0.87;;;;;;;;;;5018010;28;20208;-67
2022/02/24 07:55:41;;;;;;;2.23;1.30;;;;;;;;;;5014418;28;20205;-71
2022/02/24 07:58:09;;;;;;;0.20;0.20;;;;;;;;;;5018271;28;20199;-68
2022/02/24 08:00:37;;;;;;;0.30;0.30;;;;;;;;;;5014671;28;20204;-68
2022/02/24 08:03:05;;;;;;;0.40;0.20;;;;;;;;;;5018354;28;20581;-67
2022/02/24 08:05:34;;;;;;;0.20;0.20;;;;;;;;;;5016921;28;20316;-67
2022/02/24 08:08:01;;;;;;;4.80;2.47;;;;;;;;;;5017346;28;20224;-68
2022/02/24 08:10:29;;;;;;;2.00;0.57;;;;;;;;;;5014988;28;20192;-68
2022/02/24 08:13:01;;;;;;;1.40;0.70;;;;;;;;;;5014316;28;20287;-67
2022/02/24 08:15:28;;;;;;;4.57;1.57;;;;;;;;;;5017365;28;20236;-67
2022/02/24 08:17:56;;;;;;;1.20;1.10;;;;;;;;;;5015520;28;20570;-68
2022/02/24 08:20:23;;;;;;;1.93;0.53;;;;;;;;;;5013600;28;20204;-71
2022/02/24 08:22:53;;;;;;;13.57;1.67;;;;;;;;;;5015279;28;20247;-71
2022/02/24 08:25:21;;;;;;;0.50;0.50;;;;;;;;;;5014308;28;20271;-69
2022/02/24 08:27:49;;;;;;;1.50;0.73;;;;;;;;;;5014648;28;20223;-67
2022/02/24 08:30:17;;;;;;;2.10;1.17;;;;;;;;;;5013103;28;20193;-68
2022/02/24 08:32:45;;;;;;;0.30;0.23;;;;;;;;;;5011651;28;20216;-69
2022/02/24 08:35:13;;;;;;;0.10;0.10;;;;;;;;;;5017468;28;20213;-68
2022/02/24 08:37:40;;;;;;;2.50;0.87;;;;;;;;;;5016460;28;20569;-69
2022/02/24 08:40:10;;;;;;;0.00;0.00;;;;;;;;;;5013430;28;20662;-67
2022/02/24 08:42:37;;;;;;;4.70;2.07;;;;;;;;;;5013251;28;20201;-68
2022/02/24 08:45:06;;;;;;;2.90;0.63;;;;;;;;;;5013662;28;20679;-69
2022/02/24 08:47:33;;;;;;;1.40;1.00;;;;;;;;;;5016408;28;20209;-68
2022/02/24 08:50:01;;;;;;;0.53;0.53;;;;;;;;;;5031549;28;20199;-70
2022/02/24 08:52:29;;;;;;;1.70;0.63;;;;;;;;;;5018232;28;20232;-68
2022/02/24 08:54:56;;;;;;;2.00;1.20;;;;;;;;;;5013995;28;20197;-69
2022/02/24 08:57:25;;;;;;;2.27;1.47;;;;;;;;;;5017412;28;20205;-69
2022/02/24 08:59:52;;;;;;;0.83;0.37;;;;;;;;;;5028101;28;20204;-70
2022/02/24 09:02:20;;;;;;;0.30;0.30;;;;;;;;;;5024460;28;20192;-69
2022/02/24 09:04:47;;;;;;;2.87;0.97;;;;;;;;;;5015122;28;20649;-71
2022/02/24 09:07:14;;;;;;;6.43;1.27;;;;;;;;;;5012707;28;20224;-70
2022/02/24 09:09:42;;;;;;;5.17;1.07;;;;;;;;;;5011438;28;20564;-70
2022/02/24 09:12:10;;;;;;;2.10;1.77;;;;;;;;;;5020946;28;20200;-71
2022/02/24 09:14:39;;;;;;;0.60;0.60;;;;;;;;;;5021855;28;20192;-71
2022/02/24 09:17:06;;;;;;;0.90;0.70;;;;;;;;;;5028965;28;20861;-70
2022/02/24 09:19:33;;;;;;;2.97;1.53;;;;;;;;;;5051156;28;20587;-69
2022/02/24 09:22:01;;;;;;;4.83;1.33;;;;;;;;;;5033080;28;20197;-69
2022/02/24 09:24:28;;;;;;;7.27;1.47;;;;;;;;;;5025703;28;20204;-69
2022/02/24 09:26:55;;;;;;;2.73;1.00;;;;;;;;;;5030079;28;20232;-70
2022/02/24 09:29:23;;;;;;;2.17;1.07;;;;;;;;;;5031353;28;20192;-70
2022/02/24 09:31:51;;;;;;;0.90;0.60;;;;;;;;;;5019361;28;20197;-71
2022/02/24 09:34:19;;;;;;;15.97;1.60;;;;;;;;;;5016580;28;20654;-70
2022/02/24 09:36:47;;;;;;;1.50;1.20;;;;;;;;;;5012421;28;20604;-69
2022/02/24 09:39:15;;;;;;;5.13;0.80;;;;;;;;;;5012260;28;20355;-70
2022/02/24 09:41:42;;;;;;;3.80;1.13;;;;;;;;;;5015438;28;20574;-70
2022/02/24 09:44:09;;;;;;;1.20;1.10;;;;;;;;;;5013816;28;20205;-69
2022/02/24 09:46:38;;;;;;;1.83;1.00;;;;;;;;;;5015986;28;20192;-71
2022/02/24 09:49:07;;;;;;;2.30;1.20;;;;;;;;;;5012427;28;20196;-71
2022/02/24 09:51:35;;;;;;;1.83;0.73;;;;;;;;;;5014573;28;20205;-72
2022/02/24 09:54:03;;;;;;;0.80;0.80;;;;;;;;;;5014108;28;20192;-70
2022/02/24 09:56:30;;;;;;;2.27;1.17;;;;;;;;;;5013583;28;20199;-71
2022/02/24 09:58:58;;;;;;;4.80;1.53;;;;;;;;;;5013390;28;20251;-70
2022/02/24 10:01:26;;;;;;;0.40;0.37;;;;;;;;;;5014262;28;20193;-70
2022/02/24 10:03:57;;;;;;;7.97;1.87;;;;;;;;;;5012786;28;20201;-71
2022/02/24 10:06:35;;;;;;;5.30;0.97;;;;;;;;;;5013352;28;20220;-75
2022/02/24 10:09:04;;;;;;;2.50;1.77;;;;;;;;;;5013642;28;20208;-71
2022/02/24 10:11:34;;;;;;;0.60;0.60;;;;;;;;;;5022361;28;20203;-71
2022/02/24 10:14:03;;;;;;;0.93;0.53;;;;;;;;;;5026684;28;20612;-70
2022/02/24 10:16:31;;;;;;;2.43;0.50;;;;;;;;;;5030129;28;20700;-71
2022/02/24 10:18:58;;;;;;;0.00;0.00;;;;;;;;;;5018000;28;20204;-68
2022/02/24 10:21:27;;;;;;;0.57;0.37;;;;;;;;;;5016405;28;20270;-71
2022/02/24 10:23:56;;;;;;;1.70;1.03;;;;;;;;;;5015100;28;20200;-71
2022/02/24 10:26:25;;;;;;;3.43;1.53;;;;;;;;;;5016693;28;20589;-69
2022/02/24 10:28:53;;;;;;;1.17;0.30;;;;;;;;;;5020830;28;20299;-72
2022/02/24 10:31:22;;;;;;;0.40;0.33;;;;;;;;;;5018495;28;20197;-69
2022/02/24 10:34:10;;;;;;;3.33;1.23;;;;;;;;;;5016996;28;20269;-69
2022/02/24 10:36:38;;;;;;;2.37;1.10;;;;;;;;;;5021793;28;20193;-68
2022/02/24 10:39:08;;;;;;;0.67;0.47;;;;;;;;;;5031817;28;20327;-69
2022/02/24 10:41:38;;;;;;;5.50;1.13;;;;;;;;;;5031541;28;20240;-68
2022/02/24 10:44:12;;;;;;;0.30;0.30;;;;;;;;;;5028190;28;20217;-69
2022/02/24 10:46:40;;;;;;;0.00;0.00;;;;;;;;;;5027686;28;20200;-70
2022/02/24 10:49:08;;;;;;;0.90;0.50;;;;;;;;;;5026799;28;20701;-69
2022/02/24 10:51:36;;;;;;;1.73;0.83;;;;;;;;;;5032544;28;20675;-67
2022/02/24 10:54:05;;;;;;;3.43;0.80;;;;;;;;;;5025607;28;20205;-69
2022/02/24 10:56:35;;;;;;;1.17;1.07;;;;;;;;;;5032402;28;20201;-68
2022/02/24 10:59:03;;;;;;;0.90;0.83;;;;;;;;;;5027819;28;20688;-69
2022/02/24 11:01:31;;;;;;;0.87;0.37;;;;;;;;;;5031636;28;20701;-69
2022/02/24 11:03:59;;;;;;;0.20;0.20;;;;;;;;;;5029927;28;20197;-69
2022/02/24 11:06:28;;;;;;;8.93;1.23;;;;;;;;;;5032633;28;20211;-69
2022/02/24 11:08:56;;;;;;;0.50;0.50;;;;;;;;;;5025332;28;20227;-69
2022/02/24 11:11:25;;;;;;;1.00;0.57;;;;;;;;;;5028366;28;20214;-69
2022/02/24 11:13:54;;;;;;;3.20;1.13;;;;;;;;;;5020047;28;20691;-68
2022/02/24 11:16:22;;;;;;;0.47;0.47;;;;;;;;;;5021151;28;20573;-68
2022/02/24 11:18:50;;;;;;;1.20;0.70;;;;;;;;;;5028614;28;20204;-68
2022/02/24 11:21:18;;;;;;;1.80;0.77;;;;;;;;;;5030437;28;20683;-69
2022/02/24 11:23:46;;;;;;;0.50;0.40;;;;;;;;;;5030204;28;20200;-69
2022/02/24 11:26:31;;;;;;;0.03;0.03;;;;;;;;;;5021762;28;20200;-69
2022/02/24 11:29:03;;;;;;;1.90;0.93;;;;;;;;;;5018059;28;20234;-69
2022/02/24 11:31:35;;;;;;;1.50;1.23;;;;;;;;;;5030624;28;20670;-69
2022/02/24 11:34:02;;;;;;;0.57;0.57;;;;;;;;;;5027872;28;20208;-68
2022/02/24 11:36:39;;;;;;;3.60;0.80;;;;;;;;;;5028457;28;20196;-69
2022/02/24 11:39:10;;;;;;;6.87;1.23;;;;;;;;;;5021470;28;20316;-69
2022/02/24 11:41:51;;;;;;;2.63;0.70;;;;;;;;;;5031500;28;20202;-69
2022/02/24 11:44:32;;;;;;;4.43;1.20;;;;;;;;;;5031782;28;20676;-69
2022/02/24 11:47:01;;;;;;;1.33;0.50;;;;;;;;;;5028976;28;20200;-69
2022/02/24 11:50:02;;;;;;;1.37;0.27;;;;;;;;;;5018850;28;20225;-70
2022/02/24 11:52:31;;;;;;;1.13;0.57;;;;;;;;;;4972387;28;20249;-71
2022/02/24 11:55:00;;;;;;;0.83;0.67;;;;;;;;;;4967037;28;20210;-71
2022/02/24 11:57:28;;;;;;;3.60;0.83;;;;;;;;;;4972201;28;20206;-70
2022/02/24 11:59:57;;;;;;;0.87;0.87;;;;;;;;;;4968049;28;20214;-72
2022/02/24 12:02:40;;;;;;;0.87;0.67;;;;;;;;;;4959318;28;20210;-70
2022/02/24 12:05:18;;;;;;;0.80;0.80;;;;;;;;;;4963384;28;20213;-72
2022/02/24 12:08:00;;;;;;;1.27;0.87;;;;;;;;;;4961609;28;20236;-73
2022/02/24 12:10:39;;;;;;;1.17;1.13;;;;;;;;;;4961589;28;20209;-72
2022/02/24 12:13:21;;;;;;;2.50;0.90;;;;;;;;;;4964610;28;20284;-72
2022/02/24 12:16:03;;;;;;;8.43;2.07;;;;;;;;;;4959870;28;20668;-71
2022/02/24 12:18:39;;;;;;;0.00;0.00;;;;;;;;;;4960966;28;20211;-72
2022/02/24 12:21:21;;;;;;;0.00;0.00;;;;;;;;;;4960595;28;20237;-73
2022/02/24 12:23:49;;;;;;;0.00;0.00;;;;;;;;;;5004349;28;20248;-74
2022/02/24 12:26:18;;;;;;;0.00;0.00;;;;;;;;;;5026053;28;20569;-73
2022/02/24 12:28:45;;;;;;;0.00;0.00;;;;;;;;;;5028555;28;20232;-73
2022/02/24 12:31:20;;;;;;;0.00;0.00;;;;;;;;;;5027718;28;20204;-73
2022/02/24 12:33:49;;;;;;;0.00;0.00;;;;;;;;;;5026533;28;20235;-74
2022/02/24 12:36:16;;;;;;;0.00;0.00;;;;;;;;;;5022637;28;20200;-73
2022/02/24 12:38:44;;;;;;;0.00;0.00;;;;;;;;;;5022148;28;20243;-74
2022/02/24 12:41:11;;;;;;;0.00;0.00;;;;;;;;;;5023326;28;20494;-73
2022/02/24 12:43:44;;;;;;;0.00;0.00;;;;;;;;;;5021496;28;20639;-72
2022/02/24 12:46:13;;;;;;;0.00;0.00;;;;;;;;;;5029850;28;20246;-74
2022/02/24 12:48:41;;;;;;;0.00;0.00;;;;;;;;;;5025502;28;20274;-72
2022/02/24 12:51:11;;;;;;;0.00;0.00;;;;;;;;;;5023855;28;20196;-73
2022/02/24 12:53:41;;;;;;;0.00;0.00;;;;;;;;;;5021619;28;20209;-72
2022/02/24 12:56:09;;;;;;;0.00;0.00;;;;;;;;;;5023402;28;20569;-73
2022/02/24 12:58:36;;;;;;;0.00;0.00;;;;;;;;;;5030540;28;20619;-72
2022/02/24 13:01:04;;;;;;;0.00;0.00;;;;;;;;;;5030216;28;20198;-72
2022/02/24 13:03:31;;;;;;;0.00;0.00;;;;;;;;;;5023899;28;20262;-72
2022/02/24 13:06:00;;;;;;;0.00;0.00;;;;;;;;;;5020235;28;20247;-73
2022/02/24 13:11:17;;;;;;;0.00;0.00;;;;;;;;;;5023018;28;20683;-72
2022/02/24 13:13:45;;;;;;;0.00;0.00;;;;;;;;;;5024561;28;20192;-72
2022/02/24 13:16:16;;;;;;;0.00;0.00;;;;;;;;;;5026337;28;20231;-72
2022/02/24 13:18:44;;;;;;;0.00;0.00;;;;;;;;;;5044309;28;20198;-71
2022/02/24 13:21:12;;;;;;;0.00;0.00;;;;;;;;;;5020648;28;20197;-74
2022/02/24 13:23:43;;;;;;;0.00;0.00;;;;;;;;;;5026820;28;20207;-71
2022/02/24 13:26:11;;;;;;;0.00;0.00;;;;;;;;;;5026711;28;20200;-71
2022/02/24 13:28:40;;;;;;;0.00;0.00;;;;;;;;;;5023539;28;20225;-71
2022/02/24 13:31:09;;;;;;;0.00;0.00;;;;;;;;;;5023812;28;20302;-72
2022/02/24 13:33:37;;;;;;;0.00;0.00;;;;;;;;;;5029627;28;20640;-72
2022/02/24 13:36:05;;;;;;;0.00;0.00;;;;;;;;;;5027290;28;20208;-72
2022/02/24 13:38:35;;;;;;;0.00;0.00;;;;;;;;;;5031089;28;20224;-71
2022/02/24 13:41:04;;;;;;;0.00;0.00;;;;;;;;;;5023983;28;20700;-70
2022/02/24 13:43:31;;;;;;;0.00;0.00;;;;;;;;;;5028830;28;20223;-71
2022/02/24 13:45:59;;;;;;;0.00;0.00;;;;;;;;;;5030203;28;20196;-70
2022/02/24 13:48:27;;;;;;;0.00;0.00;;;;;;;;;;5026682;28;20290;-70
2022/02/24 13:50:56;;;;;;;0.00;0.00;;;;;;;;;;5032673;28;20665;-70
2022/02/24 13:53:25;;;;;;;0.00;0.00;;;;;;;;;;5031510;28;20196;-70
2022/02/24 13:55:56;;;;;;;0.00;0.00;;;;;;;;;;5017201;28;20307;-70
2022/02/24 13:58:29;;;;;;;0.00;0.00;;;;;;;;;;5029409;28;20210;-70
2022/02/24 14:00:57;;;;;;;0.00;0.00;;;;;;;;;;5029583;28;20199;-70
2022/02/24 14:03:36;;;;;;;0.00;0.00;;;;;;;;;;5027923;28;20572;-71
2022/02/24 14:06:09;;;;;;;0.00;0.00;;;;;;;;;;5025750;28;20204;-71
2022/02/24 14:08:36;;;;;;;0.00;0.00;;;;;;;;;;5029005;28;20349;-71
2022/02/24 14:11:13;;;;;;;0.00;0.00;;;;;;;;;;5022664;28;20677;-69
2022/02/24 14:13:42;;;;;;;0.00;0.00;;;;;;;;;;5042672;28;20564;-70
2022/02/24 14:16:10;;;;;;;0.00;0.00;;;;;;;;;;5031643;28;20204;-70
2022/02/24 14:18:38;;;;;;;0.00;0.00;;;;;;;;;;5030802;28;20231;-71
2022/02/24 14:21:06;;;;;;;0.00;0.00;;;;;;;;;;5025117;28;20197;-70
2022/02/24 14:23:33;;;;;;;0.00;0.00;;;;;;;;;;5013167;28;20208;-70
2022/02/24 14:26:01;;;;;;;0.00;0.00;;;;;;;;;;5026170;28;20739;-69
2022/02/24 14:28:28;;;;;;;0.00;0.00;;;;;;;;;;5026412;28;20224;-69
2022/02/24 14:30:57;;;;;;;0.00;0.00;;;;;;;;;;5030997;28;20192;-69
2022/02/24 14:33:25;;;;;;;0.00;0.00;;;;;;;;;;5015888;28;21434;-70
2022/02/24 14:35:53;;;;;;;0.00;0.00;;;;;;;;;;5017643;28;20584;-68
2022/02/24 14:38:20;;;;;;;0.00;0.00;;;;;;;;;;5030399;28;20236;-69
2022/02/24 14:40:48;;;;;;;0.00;0.00;;;;;;;;;;5023898;28;20200;-69
2022/02/24 14:43:16;;;;;;;0.00;0.00;;;;;;;;;;5023359;28;20212;-69
2022/02/24 14:45:44;;;;;;;0.00;0.00;;;;;;;;;;5017812;28;20552;-71
2022/02/24 14:48:13;;;;;;;0.00;0.00;;;;;;;;;;5026850;28;20232;-68
2022/02/24 14:50:41;;;;;;;0.00;0.00;;;;;;;;;;5025226;28;20289;-68
2022/02/24 14:53:09;;;;;;;0.00;0.00;;;;;;;;;;5016875;28;20200;-69